Time;durP1;ratioP1;P1;durP2;ratioP2;P2;SDS_P1;SDS_P2;PMS_P1;PMS_P2;Temp;Humidity;BMP_temperature;BMP_pressure;BME280_temperature;BME280_humidity;BME280_pressure;Samples;Min_cycle;Max_cycle;Signal;HPM_P1;HPM_P2
2021/03/10 00:00:43;;;;;;;16.20;6.30;;;3.00;58.50;;;;;;5052479;28;20196;-45
2021/03/10 00:03:09;;;;;;;10.10;6.65;;;3.00;58.60;;;;;;5034099;28;20602;-45
2021/03/10 00:05:36;;;;;;;19.77;7.60;;;2.70;58.50;;;;;;5051383;28;20692;-46
2021/03/10 00:08:02;;;;;;;10.95;6.38;;;3.00;59.00;;;;;;5052267;28;20228;-45
2021/03/10 00:10:28;;;;;;;10.55;6.45;;;2.90;59.10;;;;;;5052236;28;20198;-45
2021/03/10 00:12:55;;;;;;;8.10;6.18;;;2.90;59.30;;;;;;5051988;28;20287;-46
2021/03/10 00:15:21;;;;;;;11.88;7.25;;;2.70;59.10;;;;;;5052259;28;20660;-45
2021/03/10 00:17:48;;;;;;;13.00;6.80;;;2.60;59.00;;;;;;5052157;28;20244;-45
2021/03/10 00:20:17;;;;;;;10.45;6.68;;;2.80;59.10;;;;;;5052004;28;20861;-46
2021/03/10 00:22:44;;;;;;;11.52;6.53;;;2.60;59.00;;;;;;5051950;28;20198;-46
2021/03/10 00:25:11;;;;;;;9.73;6.80;;;2.60;58.80;;;;;;5051881;28;20196;-46
2021/03/10 00:27:38;;;;;;;11.73;6.70;;;2.80;59.30;;;;;;5051857;28;20638;-45
2021/03/10 00:30:07;;;;;;;9.50;6.72;;;2.70;58.90;;;;;;5051928;28;20678;-46
2021/03/10 00:32:33;;;;;;;11.63;6.75;;;2.60;59.20;;;;;;5051535;28;20196;-45
2021/03/10 00:35:02;;;;;;;14.23;7.90;;;1.90;58.70;;;;;;5051887;28;20279;-46
2021/03/10 00:37:28;;;;;;;10.43;7.60;;;2.50;59.20;;;;;;5051755;28;20219;-46
2021/03/10 00:39:55;;;;;;;11.60;7.35;;;2.60;59.50;;;;;;5051741;28;20219;-45
2021/03/10 00:42:21;;;;;;;13.30;7.40;;;2.50;59.40;;;;;;5051457;28;20279;-46
2021/03/10 00:44:48;;;;;;;14.27;7.35;;;2.70;59.70;;;;;;5051753;28;20188;-46
2021/03/10 00:47:14;;;;;;;13.48;7.63;;;2.60;59.70;;;;;;5051534;28;20310;-46
2021/03/10 00:49:42;;;;;;;13.85;8.07;;;2.60;59.80;;;;;;5051746;28;20198;-46
2021/03/10 00:52:09;;;;;;;11.80;7.65;;;2.50;59.80;;;;;;5051749;28;20187;-45
2021/03/10 00:54:36;;;;;;;15.43;7.80;;;2.60;60.00;;;;;;5033274;28;20208;-45
2021/03/10 00:57:02;;;;;;;9.98;7.50;;;2.50;60.00;;;;;;5051430;28;20269;-44
2021/03/10 00:59:29;;;;;;;13.23;7.53;;;2.50;60.20;;;;;;5051549;28;20221;-45
2021/03/10 01:01:55;;;;;;;12.38;7.70;;;2.50;60.20;;;;;;5051393;28;20219;-45
2021/03/10 01:04:22;;;;;;;10.63;7.32;;;2.40;60.30;;;;;;5051164;28;20196;-45
2021/03/10 01:06:48;;;;;;;11.45;8.13;;;2.40;60.40;;;;;;5051320;28;20220;-46
2021/03/10 01:09:16;;;;;;;11.70;7.18;;;2.50;60.60;;;;;;5051328;28;20553;-45
2021/03/10 01:11:43;;;;;;;13.35;7.50;;;2.50;60.60;;;;;;5051459;28;20271;-45
2021/03/10 01:14:09;;;;;;;10.68;7.63;;;2.50;60.80;;;;;;5051000;28;20283;-44
2021/03/10 01:16:35;;;;;;;15.40;8.00;;;2.10;60.50;;;;;;5053310;28;20223;-44
2021/03/10 01:19:03;;;;;;;14.63;7.97;;;2.40;61.10;;;;;;5055436;28;20242;-46
2021/03/10 01:21:29;;;;;;;14.27;8.00;;;2.30;61.10;;;;;;5055368;28;20200;-46
2021/03/10 01:23:55;;;;;;;13.60;7.82;;;2.00;60.90;;;;;;5055000;28;20227;-46
2021/03/10 01:26:22;;;;;;;13.98;7.97;;;2.40;61.50;;;;;;5055125;28;20223;-46
2021/03/10 01:28:49;;;;;;;11.93;7.55;;;1.80;61.00;;;;;;5037231;28;20298;-46
2021/03/10 01:31:15;;;;;;;13.05;7.45;;;1.50;60.60;;;;;;5037314;28;20269;-46
2021/03/10 01:33:41;;;;;;;12.05;7.63;;;2.20;61.50;;;;;;5054809;28;20199;-46
2021/03/10 01:36:08;;;;;;;10.50;7.38;;;2.20;61.50;;;;;;5055033;28;20240;-46
2021/03/10 01:38:34;;;;;;;13.88;8.07;;;2.20;61.60;;;;;;5055051;28;20203;-46
2021/03/10 01:41:00;;;;;;;11.63;7.65;;;2.30;61.70;;;;;;5054934;28;20647;-46
2021/03/10 01:43:28;;;;;;;13.48;7.25;;;2.20;61.70;;;;;;5054472;28;20204;-46
2021/03/10 01:45:54;;;;;;;16.85;8.43;;;2.20;61.80;;;;;;5054896;28;20198;-46
2021/03/10 01:48:22;;;;;;;15.63;8.10;;;2.20;61.80;;;;;;5054857;28;20540;-46
2021/03/10 01:50:48;;;;;;;11.60;6.38;;;2.10;61.90;;;;;;5054824;28;20656;-46
2021/03/10 01:53:18;;;;;;;16.05;7.35;;;2.00;61.90;;;;;;5054403;28;20251;-46
2021/03/10 01:55:45;;;;;;;15.07;7.85;;;2.20;62.10;;;;;;5054672;28;20191;-46
2021/03/10 01:58:12;;;;;;;13.23;8.95;;;1.90;61.30;;;;;;5054632;28;20202;-46
2021/03/10 02:00:40;;;;;;;14.50;9.10;;;2.00;62.10;;;;;;5054669;28;20246;-46
2021/03/10 02:03:06;;;;;;;11.25;7.45;;;2.00;62.30;;;;;;5054294;28;20223;-46
2021/03/10 02:05:32;;;;;;;12.98;7.90;;;1.80;61.90;;;;;;5054525;28;20188;-46
2021/03/10 02:08:08;;;;;;;16.80;9.48;;;2.00;62.50;;;;;;5054215;28;20230;-45
2021/03/10 02:10:45;;;;;;;11.93;8.20;;;2.10;62.80;;;;;;5054169;28;20244;-46
2021/03/10 02:13:15;;;;;;;12.02;8.02;;;2.00;62.70;;;;;;5054134;28;20560;-46
2021/03/10 02:15:53;;;;;;;10.70;7.28;;;1.90;62.60;;;;;;5054443;28;20196;-46
2021/03/10 02:18:24;;;;;;;16.92;8.02;;;1.90;62.60;;;;;;5054259;28;20237;-46
2021/03/10 02:20:53;;;;;;;13.25;8.25;;;2.00;62.90;;;;;;5054119;28;20192;-46
2021/03/10 02:23:45;;;;;;;14.52;9.20;;;1.80;62.70;;;;;;5053925;28;20200;-46
2021/03/10 02:26:47;;;;;;;13.38;8.05;;;2.00;63.00;;;;;;5054077;28;20315;-46
2021/03/10 02:29:16;;;;;;;11.90;8.05;;;1.70;62.70;;;;;;5021536;28;20679;-46
2021/03/10 02:31:46;;;;;;;15.35;8.95;;;1.80;61.90;;;;;;5053953;28;20223;-46
2021/03/10 02:34:13;;;;;;;13.60;8.45;;;1.70;62.70;;;;;;5053710;28;20610;-46
2021/03/10 02:36:41;;;;;;;11.88;8.88;;;2.00;63.00;;;;;;5054154;28;20254;-46
2021/03/10 02:39:08;;;;;;;10.52;7.95;;;1.80;62.80;;;;;;5054318;28;20672;-45
2021/03/10 02:41:35;;;;;;;12.27;7.72;;;1.50;62.50;;;;;;5053921;28;20192;-46
2021/03/10 02:44:03;;;;;;;10.73;7.38;;;1.70;62.70;;;;;;5053442;28;20323;-46
2021/03/10 02:46:30;;;;;;;17.27;8.40;;;1.80;62.90;;;;;;5053696;28;20230;-46
2021/03/10 02:48:57;;;;;;;14.05;9.00;;;1.80;62.40;;;;;;5053788;28;20196;-46
2021/03/10 02:51:24;;;;;;;13.68;8.85;;;1.80;63.90;;;;;;5053571;28;20200;-45
2021/03/10 02:53:51;;;;;;;12.57;7.72;;;1.90;63.20;;;;;;5053410;28;20283;-46
2021/03/10 02:56:18;;;;;;;15.60;8.68;;;1.80;63.40;;;;;;5067433;22;20207;-49
2021/03/10 02:58:44;;;;;;;14.65;8.38;;;1.60;62.90;;;;;;5053578;28;20215;-48
2021/03/10 03:01:11;;;;;;;16.50;7.75;;;1.60;63.30;;;;;;5053058;28;20287;-49
2021/03/10 03:03:39;;;;;;;13.75;8.25;;;1.50;63.30;;;;;;5052253;28;20199;-49
2021/03/10 03:06:05;;;;;;;14.50;8.70;;;1.60;63.40;;;;;;5052308;28;20297;-48
2021/03/10 03:08:32;;;;;;;14.73;8.18;;;1.90;63.50;;;;;;5054856;28;20196;-48
2021/03/10 03:10:59;;;;;;;11.90;8.00;;;1.60;63.40;;;;;;5055443;28;20200;-47
2021/03/10 03:13:28;;;;;;;12.43;8.77;;;1.90;62.80;;;;;;5054229;28;20343;-48
2021/03/10 03:15:56;;;;;;;14.45;8.55;;;1.70;63.40;;;;;;5035344;28;20249;-48
2021/03/10 03:18:22;;;;;;;10.68;7.95;;;1.40;63.30;;;;;;5054422;28;20372;-48
2021/03/10 03:20:50;;;;;;;12.75;8.73;;;1.70;63.40;;;;;;5055155;28;20695;-47
2021/03/10 03:23:18;;;;;;;13.57;8.20;;;1.70;63.60;;;;;;5054310;28;20196;-47
2021/03/10 03:25:45;;;;;;;13.40;9.38;;;1.70;63.10;;;;;;5054697;28;20192;-48
2021/03/10 03:28:15;;;;;;;16.65;8.70;;;1.80;63.30;;;;;;5053613;28;20212;-47
2021/03/10 03:30:43;;;;;;;18.58;9.32;;;1.70;63.80;;;;;;5053960;28;20286;-46
2021/03/10 03:33:12;;;;;;;14.50;8.00;;;1.50;63.50;;;;;;5054070;28;20200;-47
2021/03/10 03:35:38;;;;;;;20.38;9.75;;;1.50;63.60;;;;;;5053226;28;20283;-47
2021/03/10 03:38:06;;;;;;;16.98;9.15;;;1.50;63.40;;;;;;5053237;28;20681;-47
2021/03/10 03:40:34;;;;;;;16.17;10.60;;;1.50;63.90;;;;;;5053968;28;20668;-47
2021/03/10 03:43:01;;;;;;;22.38;9.30;;;1.60;64.20;;;;;;5053721;28;20281;-48
2021/03/10 03:45:27;;;;;;;14.75;9.25;;;1.70;64.30;;;;;;5054265;28;20242;-47
2021/03/10 03:47:55;;;;;;;15.25;9.52;;;1.60;64.30;;;;;;5054370;28;20302;-47
2021/03/10 03:50:23;;;;;;;16.33;9.18;;;1.50;64.20;;;;;;5053975;28;20194;-47
2021/03/10 03:52:50;;;;;;;14.07;8.68;;;1.60;64.40;;;;;;5053182;28;20197;-48
2021/03/10 03:55:17;;;;;;;22.73;9.93;;;1.60;64.60;;;;;;5052559;28;20280;-48
2021/03/10 03:57:43;;;;;;;15.95;8.85;;;1.50;64.20;;;;;;5052815;28;20558;-48
2021/03/10 04:00:13;;;;;;;15.48;9.57;;;1.20;64.30;;;;;;5052907;28;20199;-47
2021/03/10 04:02:39;;;;;;;19.30;9.13;;;1.40;64.30;;;;;;5052091;28;20232;-49
2021/03/10 04:05:06;;;;;;;14.95;8.88;;;1.40;64.70;;;;;;5052129;28;20210;-47
2021/03/10 04:07:34;;;;;;;18.35;10.45;;;1.30;64.60;;;;;;5052052;28;20220;-48
2021/03/10 04:10:00;;;;;;;15.15;9.23;;;1.00;64.30;;;;;;5051754;28;20735;-47
2021/03/10 04:12:27;;;;;;;17.77;9.90;;;1.20;64.60;;;;;;5051447;28;20330;-47
2021/03/10 04:14:53;;;;;;;17.75;9.40;;;1.20;64.80;;;;;;5051774;28;20671;-48
2021/03/10 04:17:19;;;;;;;18.75;9.73;;;1.20;64.70;;;;;;5051771;28;20208;-48
2021/03/10 04:19:45;;;;;;;15.85;10.45;;;1.50;65.20;;;;;;5051506;28;20278;-48
2021/03/10 04:22:11;;;;;;;21.92;10.00;;;1.60;65.30;;;;;;5051552;28;20196;-48
2021/03/10 04:24:38;;;;;;;20.58;10.85;;;1.60;66.10;;;;;;5051247;28;20207;-48
2021/03/10 04:27:05;;;;;;;19.00;11.00;;;1.40;65.10;;;;;;5051691;28;20219;-48
2021/03/10 04:29:32;;;;;;;19.52;10.43;;;1.50;65.30;;;;;;5051382;28;20195;-48
2021/03/10 04:31:58;;;;;;;25.67;11.30;;;1.50;65.40;;;;;;5051644;28;20224;-49
2021/03/10 04:34:24;;;;;;;19.55;11.27;;;1.50;65.50;;;;;;5051071;28;20208;-47
2021/03/10 04:36:50;;;;;;;17.80;10.70;;;1.40;65.40;;;;;;5052000;28;20238;-48
2021/03/10 04:39:16;;;;;;;19.92;11.05;;;1.20;65.20;;;;;;5051505;28;20609;-47
2021/03/10 04:41:43;;;;;;;18.80;10.38;;;1.30;65.30;;;;;;5051351;28;20224;-47
2021/03/10 04:44:09;;;;;;;27.35;12.18;;;1.30;65.40;;;;;;5050982;28;20196;-46
2021/03/10 04:46:36;;;;;;;20.75;11.95;;;1.50;65.70;;;;;;5051015;28;20281;-48
2021/03/10 04:49:02;;;;;;;16.55;10.00;;;1.10;65.30;;;;;;5051135;28;20200;-47
2021/03/10 04:51:29;;;;;;;18.83;11.65;;;1.50;65.90;;;;;;5051005;28;20188;-48
2021/03/10 04:53:55;;;;;;;18.05;10.75;;;1.10;65.30;;;;;;5051169;28;20575;-47
2021/03/10 04:56:21;;;;;;;20.45;9.18;;;0.80;65.00;;;;;;5051122;28;20251;-47
2021/03/10 04:58:47;;;;;;;17.40;10.48;;;1.50;65.70;;;;;;5051535;28;20325;-47
2021/03/10 05:01:13;;;;;;;19.30;11.68;;;1.40;65.70;;;;;;5051619;28;20187;-47
2021/03/10 05:03:40;;;;;;;18.80;11.20;;;1.20;65.50;;;;;;5050340;28;20200;-47
2021/03/10 05:06:07;;;;;;;23.13;11.25;;;1.00;65.30;;;;;;5050777;28;20683;-48
2021/03/10 05:08:33;;;;;;;19.73;10.90;;;1.30;64.90;;;;;;5050905;28;20665;-48
2021/03/10 05:10:59;;;;;;;21.70;10.32;;;1.40;65.80;;;;;;5051119;28;20204;-48
2021/03/10 05:13:25;;;;;;;20.80;10.70;;;1.00;65.50;;;;;;5033085;28;20208;-48
2021/03/10 05:15:52;;;;;;;22.42;10.82;;;1.00;65.50;;;;;;5052139;28;20227;-47
2021/03/10 05:18:18;;;;;;;18.10;10.63;;;1.00;65.10;;;;;;5053103;28;20318;-46
2021/03/10 05:20:45;;;;;;;18.40;10.23;;;1.10;65.80;;;;;;5053151;28;20666;-48
2021/03/10 05:23:11;;;;;;;28.20;10.43;;;1.40;66.20;;;;;;5052022;28;20204;-49
2021/03/10 05:25:38;;;;;;;17.60;10.63;;;1.20;66.30;;;;;;5051427;28;20654;-49
2021/03/10 05:28:05;;;;;;;23.35;11.95;;;1.20;66.50;;;;;;5051020;28;20224;-48
2021/03/10 05:30:31;;;;;;;25.08;13.20;;;1.30;66.80;;;;;;5033185;28;20204;-49
2021/03/10 05:32:57;;;;;;;22.65;13.45;;;1.00;66.60;;;;;;5050722;28;20231;-48
2021/03/10 05:35:23;;;;;;;22.67;11.38;;;1.00;66.60;;;;;;5050808;28;20238;-49
2021/03/10 05:37:50;;;;;;;19.88;11.68;;;0.90;66.80;;;;;;5050550;28;20263;-48
2021/03/10 05:40:18;;;;;;;21.58;13.85;;;1.00;67.40;;;;;;5053685;28;20196;-48
2021/03/10 05:42:44;;;;;;;22.13;11.73;;;1.00;67.50;;;;;;5050568;28;20286;-48
2021/03/10 05:45:13;;;;;;;22.27;11.80;;;1.00;67.30;;;;;;5050584;28;20198;-47
2021/03/10 05:47:40;;;;;;;24.85;12.75;;;0.90;67.80;;;;;;5051078;28;20608;-48
2021/03/10 05:50:07;;;;;;;21.20;12.85;;;0.90;67.80;;;;;;5051053;28;20202;-48
2021/03/10 05:52:36;;;;;;;32.38;13.30;;;0.80;68.00;;;;;;5050888;28;20215;-49
2021/03/10 05:55:06;;;;;;;21.77;12.68;;;0.80;67.30;;;;;;5051470;28;20598;-48
2021/03/10 05:57:32;;;;;;;23.58;12.60;;;0.70;68.20;;;;;;5050798;28;20596;-47
2021/03/10 05:59:58;;;;;;;24.95;12.30;;;1.10;68.70;;;;;;5051507;28;20753;-48
2021/03/10 06:02:26;;;;;;;28.15;13.20;;;1.10;68.60;;;;;;5050644;28;20668;-47
2021/03/10 06:04:52;;;;;;;24.88;13.68;;;1.10;68.60;;;;;;5054999;28;20230;-48
2021/03/10 06:07:20;;;;;;;24.63;12.88;;;1.00;68.20;;;;;;5055303;28;20270;-47
2021/03/10 06:09:59;;;;;;;28.30;14.68;;;1.10;68.10;;;;;;5055302;28;20202;-47
2021/03/10 06:12:37;;;;;;;30.27;14.25;;;1.00;68.20;;;;;;5055524;28;20219;-48
2021/03/10 06:15:04;;;;;;;25.73;13.23;;;1.00;68.30;;;;;;5055897;28;20195;-47
2021/03/10 06:17:40;;;;;;;24.70;12.73;;;1.10;68.00;;;;;;5055464;28;20220;-48
2021/03/10 06:20:09;;;;;;;22.40;13.25;;;1.30;68.70;;;;;;5055321;28;20199;-48
2021/03/10 06:22:36;;;;;;;24.17;14.00;;;1.00;68.00;;;;;;5054564;28;20254;-49
2021/03/10 06:25:03;;;;;;;24.27;14.20;;;1.30;68.80;;;;;;5054349;28;20202;-49
2021/03/10 06:27:31;;;;;;;24.17;12.90;;;1.40;68.50;;;;;;5053953;28;20305;-49
2021/03/10 06:29:58;;;;;;;26.60;14.65;;;1.40;68.70;;;;;;5054333;28;20641;-47
2021/03/10 06:32:24;;;;;;;24.67;13.27;;;1.70;68.00;;;;;;5053964;28;20211;-49
2021/03/10 06:34:52;;;;;;;21.70;13.35;;;1.60;68.30;;;;;;5054997;28;20202;-47
2021/03/10 06:37:27;;;;;;;27.17;15.23;;;1.60;68.10;;;;;;5055330;28;20302;-49
2021/03/10 06:39:53;;;;;;;31.35;16.60;;;1.60;68.00;;;;;;5055422;28;20259;-48
2021/03/10 06:42:23;;;;;;;28.48;13.70;;;1.80;68.20;;;;;;5055501;28;20204;-49
2021/03/10 06:44:51;;;;;;;25.77;14.35;;;1.30;67.50;;;;;;5054918;28;20198;-55
2021/03/10 06:47:18;;;;;;;25.20;14.30;;;1.70;67.70;;;;;;5055362;28;20220;-48
2021/03/10 06:49:53;;;;;;;26.90;14.48;;;1.60;67.20;;;;;;5054748;28;20223;-48
2021/03/10 06:52:19;;;;;;;21.10;13.52;;;1.50;66.90;;;;;;5055442;28;20191;-49
2021/03/10 06:54:54;;;;;;;24.50;13.32;;;2.30;67.50;;;;;;5053920;28;20192;-48
2021/03/10 06:57:21;;;;;;;27.00;16.38;;;2.50;66.90;;;;;;5053133;28;20230;-48
2021/03/10 06:59:48;;;;;;;24.80;14.52;;;2.30;65.80;;;;;;5053471;28;20275;-48
2021/03/10 07:02:17;;;;;;;35.78;14.63;;;2.20;65.50;;;;;;5052857;28;20265;-49
2021/03/10 07:04:45;;;;;;;30.08;15.80;;;2.30;65.10;;;;;;5052855;28;20621;-48
2021/03/10 07:07:12;;;;;;;25.40;14.32;;;2.60;65.10;;;;;;5034686;28;20311;-46
2021/03/10 07:09:39;;;;;;;36.75;16.95;;;2.70;64.90;;;;;;5053360;28;20196;-47
2021/03/10 07:12:07;;;;;;;27.95;14.93;;;2.40;64.40;;;;;;5035268;28;20299;-50
2021/03/10 07:14:34;;;;;;;31.60;16.23;;;2.80;64.60;;;;;;5052737;28;20194;-48
2021/03/10 07:17:03;;;;;;;30.00;15.55;;;2.50;63.90;;;;;;5052742;28;20230;-49
2021/03/10 07:19:31;;;;;;;31.63;15.85;;;2.80;64.10;;;;;;5052924;28;20196;-49
2021/03/10 07:22:01;;;;;;;28.45;15.20;;;2.80;64.00;;;;;;5053248;28;20188;-48
2021/03/10 07:24:33;;;;;;;22.52;13.05;;;2.80;63.80;;;;;;5052401;28;20200;-49
2021/03/10 07:27:02;;;;;;;24.73;14.63;;;2.50;62.90;;;;;;5018258;28;20219;-49
2021/03/10 07:29:35;;;;;;;19.60;13.73;;;2.50;62.50;;;;;;5051871;28;20188;-48
2021/03/10 07:32:02;;;;;;;25.83;16.33;;;2.80;62.60;;;;;;5053709;28;20287;-50
2021/03/10 07:34:30;;;;;;;35.15;16.85;;;2.70;62.20;;;;;;5034204;28;20369;-48
2021/03/10 07:36:57;;;;;;;22.65;14.75;;;2.10;61.80;;;;;;5052230;28;20212;-47
2021/03/10 07:39:25;;;;;;;28.85;16.58;;;2.40;61.90;;;;;;5052357;28;20538;-49
2021/03/10 07:41:53;;;;;;;30.42;16.23;;;3.00;62.50;;;;;;5051777;28;20652;-50
2021/03/10 07:44:21;;;;;;;33.40;15.98;;;2.70;62.20;;;;;;5051679;28;20200;-50
2021/03/10 07:46:49;;;;;;;31.35;16.35;;;3.00;62.30;;;;;;5053690;28;20241;-49
2021/03/10 07:49:21;;;;;;;24.10;13.90;;;2.60;61.90;;;;;;5052177;28;20192;-48
2021/03/10 07:51:48;;;;;;;25.35;14.55;;;3.10;62.30;;;;;;5052517;28;20653;-48
2021/03/10 07:54:23;;;;;;;21.80;11.95;;;3.00;62.10;;;;;;5051949;28;20196;-47
2021/03/10 07:56:49;;;;;;;23.13;14.48;;;3.10;61.90;;;;;;5051692;28;20704;-47
2021/03/10 07:59:18;;;;;;;22.08;14.07;;;3.10;62.00;;;;;;5051814;28;20203;-50
2021/03/10 08:01:44;;;;;;;24.40;13.02;;;3.20;62.00;;;;;;5052476;28;20600;-49
2021/03/10 08:04:15;;;;;;;30.77;15.43;;;3.20;61.70;;;;;;5051690;28;20275;-51
2021/03/10 08:06:46;;;;;;;29.45;13.68;;;3.20;61.50;;;;;;5052177;28;20337;-49
2021/03/10 08:09:13;;;;;;;22.63;15.02;;;3.30;61.30;;;;;;5052245;28;20188;-49
2021/03/10 08:11:43;;;;;;;27.63;14.00;;;3.40;61.40;;;;;;5034868;28;20204;-49
2021/03/10 08:14:11;;;;;;;27.13;14.65;;;3.50;61.00;;;;;;5052294;28;20317;-48
2021/03/10 08:16:48;;;;;;;24.70;14.35;;;2.90;60.40;;;;;;5052646;28;20497;-48
2021/03/10 08:19:20;;;;;;;33.33;14.07;;;3.60;61.00;;;;;;5018568;28;20204;-48
2021/03/10 08:21:50;;;;;;;24.02;15.13;;;3.60;60.90;;;;;;5053016;28;20196;-49
2021/03/10 08:24:16;;;;;;;28.15;16.17;;;3.60;60.90;;;;;;5051746;28;20204;-48
2021/03/10 08:26:49;;;;;;;28.45;15.05;;;3.50;61.00;;;;;;5051294;28;20222;-48
2021/03/10 08:29:15;;;;;;;24.65;13.88;;;3.30;60.50;;;;;;5052056;28;20192;-48
2021/03/10 08:31:48;;;;;;;30.08;13.90;;;3.70;60.70;;;;;;5033634;28;20295;-49
2021/03/10 08:34:16;;;;;;;25.73;13.27;;;3.20;60.00;;;;;;5051513;28;20282;-50
2021/03/10 08:36:43;;;;;;;19.15;11.95;;;3.80;60.20;;;;;;5033571;28;20296;-50
2021/03/10 08:39:12;;;;;;;24.52;12.55;;;3.90;59.80;;;;;;5052155;28;20214;-50
2021/03/10 08:41:47;;;;;;;23.35;12.95;;;3.80;59.60;;;;;;5052452;28;20600;-49
2021/03/10 08:44:14;;;;;;;23.40;13.20;;;3.90;59.40;;;;;;5051492;28;20311;-48
2021/03/10 08:46:42;;;;;;;16.95;11.63;;;4.10;59.20;;;;;;5051433;28;20592;-47
2021/03/10 08:49:28;;;;;;;23.88;12.05;;;4.10;59.20;;;;;;5051318;28;20196;-49
2021/03/10 08:52:09;;;;;;;21.67;11.60;;;4.10;59.00;;;;;;5033222;28;20191;-48
2021/03/10 08:54:52;;;;;;;17.88;10.27;;;4.30;58.80;;;;;;5033986;28;20215;-47
2021/03/10 08:57:21;;;;;;;17.10;10.80;;;4.40;58.60;;;;;;5052722;23;20243;-44
2021/03/10 08:59:49;;;;;;;20.77;11.20;;;4.30;58.20;;;;;;5051247;28;20208;-45
2021/03/10 09:02:16;;;;;;;19.25;11.15;;;4.20;57.80;;;;;;5049450;28;20200;-48
2021/03/10 09:04:47;;;;;;;17.98;11.52;;;4.30;58.00;;;;;;5049913;28;20262;-47
2021/03/10 09:07:17;;;;;;;18.30;11.35;;;4.30;57.90;;;;;;5050263;28;20251;-46
2021/03/10 09:09:46;;;;;;;21.40;11.27;;;4.40;57.60;;;;;;5050124;28;20294;-46
2021/03/10 09:12:14;;;;;;;14.70;10.57;;;4.30;57.40;;;;;;5049625;28;20205;-45
2021/03/10 09:14:48;;;;;;;18.48;10.13;;;4.30;57.10;;;;;;5050301;28;20195;-46
2021/03/10 09:17:29;;;;;;;21.10;10.75;;;4.60;57.50;;;;;;5051477;28;20648;-47
2021/03/10 09:19:59;;;;;;;25.77;12.73;;;4.70;56.90;;;;;;5051018;28;20722;-45
2021/03/10 09:22:26;;;;;;;19.73;11.60;;;4.60;57.40;;;;;;5049558;28;20258;-47
2021/03/10 09:24:58;;;;;;;19.08;12.02;;;4.80;56.90;;;;;;5050891;28;20714;-47
2021/03/10 09:27:28;;;;;;;21.92;10.25;;;4.60;56.90;;;;;;5050312;28;20599;-47
2021/03/10 09:29:57;;;;;;;13.60;8.43;;;4.80;57.00;;;;;;5050702;28;20222;-46
2021/03/10 09:32:26;;;;;;;11.27;8.63;;;5.10;56.40;;;;;;5049668;28;20204;-46
2021/03/10 09:34:55;;;;;;;15.98;10.10;;;5.10;56.30;;;;;;5049781;28;20204;-46
2021/03/10 09:37:24;;;;;;;13.95;8.05;;;5.20;56.40;;;;;;5052676;28;20688;-47
2021/03/10 09:39:53;;;;;;;17.60;9.90;;;5.10;55.90;;;;;;5055476;28;20200;-46
2021/03/10 09:42:29;;;;;;;19.63;9.30;;;5.20;55.60;;;;;;5053082;28;20206;-47
2021/03/10 09:45:05;;;;;;;14.05;8.18;;;5.20;55.60;;;;;;5053147;28;20210;-46
2021/03/10 09:47:48;;;;;;;13.10;9.05;;;5.00;55.20;;;;;;5054214;28;20742;-46
2021/03/10 09:50:31;;;;;;;13.70;8.70;;;5.20;55.30;;;;;;5053408;28;20228;-46
2021/03/10 09:53:12;;;;;;;14.13;9.50;;;5.40;55.00;;;;;;5053191;28;20272;-46
2021/03/10 09:55:39;;;;;;;24.20;10.38;;;5.20;54.80;;;;;;5053455;28;20231;-46
2021/03/10 09:58:07;;;;;;;12.68;9.23;;;5.30;55.00;;;;;;5054233;28;20215;-46
2021/03/10 10:00:43;;;;;;;15.85;9.38;;;5.50;54.80;;;;;;5052991;28;20361;-46
2021/03/10 10:03:11;;;;;;;15.52;9.70;;;5.40;54.60;;;;;;5052666;28;20208;-46
2021/03/10 10:05:41;;;;;;;19.25;7.53;;;5.60;54.50;;;;;;5052714;28;20286;-46
2021/03/10 10:08:10;;;;;;;20.88;8.35;;;5.80;54.40;;;;;;5052584;28;20232;-45
2021/03/10 10:10:38;;;;;;;17.67;7.47;;;5.90;53.70;;;;;;5052912;28;20219;-47
2021/03/10 10:13:06;;;;;;;13.80;7.50;;;5.90;53.40;;;;;;5053608;28;20196;-48
2021/03/10 10:15:38;;;;;;;10.50;6.68;;;6.00;52.80;;;;;;5052793;28;20204;-46
2021/03/10 10:18:07;;;;;;;10.07;7.00;;;6.20;52.30;;;;;;5053642;28;20203;-45
2021/03/10 10:20:38;;;;;;;15.05;7.88;;;6.20;52.20;;;;;;5053093;28;20212;-45
2021/03/10 10:23:10;;;;;;;8.18;6.13;;;6.20;50.90;;;;;;5052203;28;20531;-46
2021/03/10 10:25:44;;;;;;;8.85;7.13;;;5.80;50.60;;;;;;5052009;28;20224;-47
2021/03/10 10:28:12;;;;;;;9.68;5.93;;;6.40;50.70;;;;;;5052151;28;20231;-45
2021/03/10 10:30:39;;;;;;;6.20;5.47;;;6.80;50.60;;;;;;5052657;28;20207;-46
2021/03/10 10:33:08;;;;;;;11.53;5.77;;;6.60;49.70;;;;;;5052085;28;20203;-47
2021/03/10 10:35:42;;;;;;;6.50;4.57;;;6.80;48.90;;;;;;5052360;28;20464;-47
2021/03/10 10:38:09;;;;;;;8.10;3.80;;;7.00;48.20;;;;;;5052129;28;20458;-46
2021/03/10 10:40:36;;;;;;;6.40;4.63;;;7.10;45.60;;;;;;5052470;28;20507;-46
2021/03/10 10:43:03;;;;;;;11.73;5.40;;;6.90;45.10;;;;;;5051993;28;20458;-47
2021/03/10 10:45:30;;;;;;;8.10;4.90;;;6.80;44.20;;;;;;5053021;28;20450;-45
2021/03/10 10:47:56;;;;;;;11.83;5.90;;;7.30;45.10;;;;;;5053389;28;21029;-46
2021/03/10 10:50:31;;;;;;;6.97;4.80;;;7.00;45.10;;;;;;5051643;28;20549;-45
2021/03/10 10:52:58;;;;;;;9.60;5.60;;;7.10;45.20;;;;;;5053031;28;20439;-45
2021/03/10 10:55:26;;;;;;;7.40;5.63;;;7.60;45.40;;;;;;5052040;28;20966;-45
2021/03/10 10:57:58;;;;;;;12.77;5.87;;;7.40;45.20;;;;;;5053972;28;20491;-46
2021/03/10 11:00:27;;;;;;;9.77;7.00;;;7.40;45.20;;;;;;5056039;28;20474;-46
2021/03/10 11:03:00;;;;;;;13.33;6.67;;;7.50;44.90;;;;;;5062569;28;20454;-44
2021/03/10 11:05:38;;;;;;;9.23;5.07;;;7.20;44.30;;;;;;5051678;28;20443;-46
2021/03/10 11:08:08;;;;;;;7.30;5.10;;;7.50;44.40;;;;;;5062321;28;21050;-46
2021/03/10 11:10:36;;;;;;;8.53;5.00;;;7.60;44.40;;;;;;5051478;28;20428;-47
2021/03/10 11:13:05;;;;;;;6.57;5.20;;;8.00;44.20;;;;;;5051699;28;20539;-44
2021/03/10 11:15:42;;;;;;;6.23;4.70;;;8.00;43.90;;;;;;5063438;28;20469;-47
2021/03/10 11:18:32;;;;;;;8.80;4.60;;;7.90;43.00;;;;;;5033235;28;20514;-48
2021/03/10 11:20:59;;;;;;;8.80;5.33;;;7.90;42.80;;;;;;5031792;28;20484;-45
2021/03/10 11:23:27;;;;;;;9.60;5.97;;;7.90;43.00;;;;;;5030676;28;20429;-45
2021/03/10 11:25:54;;;;;;;9.10;5.50;;;8.00;42.80;;;;;;5031473;28;20560;-47
2021/03/10 11:28:21;;;;;;;7.80;5.30;;;7.80;42.30;;;;;;5031438;28;20520;-46
2021/03/10 11:30:49;;;;;;;8.17;5.50;;;7.50;42.30;;;;;;5031507;28;20473;-45
2021/03/10 11:33:16;;;;;;;11.90;5.20;;;8.10;42.40;;;;;;5056901;28;20654;-45
2021/03/10 11:35:46;;;;;;;8.90;5.17;;;8.30;42.60;;;;;;5053089;28;20429;-45
2021/03/10 11:38:13;;;;;;;8.80;5.87;;;8.40;42.50;;;;;;5051110;28;20514;-45
2021/03/10 11:40:40;;;;;;;15.40;7.00;;;8.00;41.30;;;;;;5051090;28;20485;-45
2021/03/10 11:43:07;;;;;;;11.33;5.20;;;8.20;41.70;;;;;;5031864;28;20443;-45
2021/03/10 11:45:34;;;;;;;7.60;4.87;;;8.30;41.70;;;;;;5032345;28;20520;-47
2021/03/10 11:48:00;;;;;;;6.30;4.30;;;8.40;41.60;;;;;;5032224;28;20592;-46
2021/03/10 11:50:27;;;;;;;12.40;5.37;;;8.30;41.10;;;;;;5032576;28;20444;-46
2021/03/10 11:52:54;;;;;;;8.60;4.57;;;8.30;41.10;;;;;;5032660;28;20511;-46
2021/03/10 11:55:21;;;;;;;7.10;5.40;;;8.30;40.90;;;;;;5032780;28;20437;-46
2021/03/10 11:57:48;;;;;;;10.80;4.70;;;8.70;41.20;;;;;;5032444;28;20482;-46
2021/03/10 12:00:18;;;;;;;6.80;4.53;;;8.40;39.60;;;;;;5030349;28;20451;-46
2021/03/10 12:02:52;;;;;;;4.50;3.80;;;8.30;38.70;;;;;;5030266;28;20532;-45
2021/03/10 12:05:27;;;;;;;10.43;6.83;;;8.30;38.70;;;;;;5030594;28;20460;-46
2021/03/10 12:07:54;;;;;;;5.80;4.60;;;8.40;39.30;;;;;;5031819;28;20481;-47
2021/03/10 12:10:22;;;;;;;8.73;4.80;;;8.40;39.20;;;;;;5032489;28;20785;-46
2021/03/10 12:12:48;;;;;;;8.57;5.13;;;8.40;39.50;;;;;;5032261;28;20449;-46
2021/03/10 12:15:18;;;;;;;6.13;5.07;;;8.30;39.30;;;;;;5031614;28;20434;-47
2021/03/10 12:17:45;;;;;;;8.93;5.30;;;8.40;39.60;;;;;;5031303;28;20465;-46
2021/03/10 12:20:12;;;;;;;8.80;5.40;;;8.20;39.20;;;;;;5031504;28;20780;-45
2021/03/10 12:22:40;;;;;;;9.03;5.20;;;8.50;39.90;;;;;;5031624;28;20493;-46
2021/03/10 12:25:08;;;;;;;8.20;5.30;;;8.60;40.40;;;;;;5032165;28;21214;-45
2021/03/10 12:27:36;;;;;;;7.10;4.70;;;8.30;40.40;;;;;;5031616;28;20908;-46
2021/03/10 12:30:04;;;;;;;16.13;6.00;;;8.30;40.50;;;;;;5032146;28;20544;-45
2021/03/10 12:32:35;;;;;;;8.80;6.07;;;8.30;40.80;;;;;;5030100;28;20463;-47
2021/03/10 12:35:02;;;;;;;10.10;5.80;;;8.20;41.10;;;;;;5030988;28;20944;-46
2021/03/10 12:37:29;;;;;;;9.07;5.23;;;8.10;41.30;;;;;;5031036;28;20480;-45
2021/03/10 12:39:56;;;;;;;13.40;6.80;;;8.50;41.30;;;;;;5029992;28;20482;-47
2021/03/10 12:42:23;;;;;;;15.27;5.67;;;8.10;40.10;;;;;;5030962;28;20478;-46
2021/03/10 12:44:51;;;;;;;9.27;7.20;;;8.20;40.20;;;;;;5031556;28;20477;-46
2021/03/10 12:47:19;;;;;;;11.03;5.87;;;8.40;40.30;;;;;;5031586;28;21013;-47
2021/03/10 12:49:46;;;;;;;8.07;5.90;;;8.30;40.00;;;;;;5031040;28;20808;-46